createdAt,value
2023-05-04T00:02:20.334Z,11.20
2023-05-04T00:04:47.186Z,11.20
2023-05-04T00:07:14.059Z,11.20
2023-05-04T00:09:40.935Z,11.10
2023-05-04T00:12:08.205Z,11.20
2023-05-04T00:14:36.397Z,11.20
2023-05-04T00:17:06.431Z,11.30
2023-05-04T00:19:34.716Z,11.20
2023-05-04T00:22:02.450Z,11.00
2023-05-04T00:24:29.473Z,11.10
2023-05-04T00:26:56.327Z,11.00
2023-05-04T00:29:23.332Z,11.00
2023-05-04T00:31:50.485Z,11.00
2023-05-04T00:34:17.431Z,11.00
2023-05-04T00:36:44.382Z,11.00
2023-05-04T00:39:11.102Z,11.10
2023-05-04T00:41:37.908Z,11.00
2023-05-04T00:44:07.084Z,10.90
2023-05-04T00:46:34.447Z,10.80
2023-05-04T00:49:02.172Z,10.80
2023-05-04T00:51:30.274Z,10.90
2023-05-04T00:53:58.356Z,10.80
2023-05-04T00:56:26.759Z,10.70
2023-05-04T00:58:54.475Z,10.80
2023-05-04T01:01:22.445Z,10.70
2023-05-04T01:03:51.933Z,10.70
2023-05-04T01:06:36.110Z,10.60
2023-05-04T01:09:30.073Z,10.70
2023-05-04T01:12:35.016Z,10.60
2023-05-04T01:15:03.977Z,10.60
2023-05-04T01:17:30.829Z,10.60
2023-05-04T01:19:57.637Z,10.70
2023-05-04T01:22:24.606Z,10.60
2023-05-04T01:24:51.480Z,10.60
2023-05-04T01:27:49.989Z,10.60
2023-05-04T01:30:29.678Z,10.60
2023-05-04T01:33:00.728Z,10.50
2023-05-04T01:35:27.844Z,10.50
2023-05-04T01:37:55.878Z,10.50
2023-05-04T01:40:22.701Z,10.50
2023-05-04T01:42:49.394Z,10.40
2023-05-04T01:45:16.432Z,10.40
2023-05-04T01:47:45.590Z,10.40
2023-05-04T01:50:12.345Z,10.30
2023-05-04T01:52:39.155Z,10.30
2023-05-04T01:55:06.224Z,10.30
2023-05-04T01:57:33.255Z,10.20
2023-05-04T02:00:00.082Z,10.30
2023-05-04T02:02:27.072Z,10.30
2023-05-04T02:04:53.819Z,10.30
2023-05-04T02:07:20.594Z,10.30
2023-05-04T02:09:47.280Z,10.30
2023-05-04T02:12:14.043Z,10.20
2023-05-04T02:14:40.816Z,10.20
2023-05-04T02:17:08.252Z,10.10
2023-05-04T02:19:35.054Z,10.20
2023-05-04T02:22:01.805Z,10.20
2023-05-04T02:24:28.551Z,10.10
2023-05-04T02:26:55.313Z,10.00
2023-05-04T02:29:22.072Z,10.00
2023-05-04T02:31:48.918Z,9.90
2023-05-04T02:34:15.737Z,9.90
2023-05-04T02:36:42.573Z,9.90
2023-05-04T02:39:10.343Z,9.80
2023-05-04T02:41:37.053Z,9.80
2023-05-04T02:44:03.929Z,9.80
2023-05-04T02:46:32.390Z,9.80
2023-05-04T02:48:59.150Z,9.70
2023-05-04T02:51:25.920Z,9.70
2023-05-04T02:53:52.626Z,9.80
2023-05-04T02:56:19.354Z,9.70
2023-05-04T02:58:46.526Z,9.70
2023-05-04T03:01:13.301Z,9.70
2023-05-04T03:03:41.687Z,9.80
2023-05-04T03:06:08.501Z,9.60
2023-05-04T03:08:35.994Z,9.60
2023-05-04T03:11:02.792Z,9.60
2023-05-04T03:13:29.543Z,9.60
2023-05-04T03:15:56.420Z,9.70
2023-05-04T03:18:23.216Z,9.70
2023-05-04T03:20:50.039Z,9.60
2023-05-04T03:23:16.770Z,9.60
2023-05-04T03:25:43.595Z,9.50
2023-05-04T03:28:10.345Z,9.50
2023-05-04T03:30:37.084Z,9.40
2023-05-04T03:33:04.049Z,9.40
2023-05-04T03:35:30.903Z,9.40
2023-05-04T03:37:57.662Z,9.40
2023-05-04T03:40:24.585Z,9.40
2023-05-04T03:42:53.988Z,9.40
2023-05-04T03:45:22.040Z,9.40
2023-05-04T03:47:48.902Z,9.40
2023-05-04T03:50:15.726Z,9.40
2023-05-04T03:52:42.501Z,9.30
2023-05-04T03:55:10.349Z,9.30
2023-05-04T03:57:37.070Z,9.30
2023-05-04T04:00:04.706Z,9.30
2023-05-04T04:02:31.859Z,9.30
2023-05-04T04:04:58.710Z,9.20
2023-05-04T04:07:25.563Z,9.20
2023-05-04T04:09:52.809Z,9.20
2023-05-04T04:12:20.519Z,9.20
2023-05-04T04:14:52.441Z,9.20
2023-05-04T04:17:19.371Z,9.10
2023-05-04T04:19:46.147Z,9.10
2023-05-04T04:22:12.935Z,9.10
2023-05-04T04:24:39.686Z,9.10
2023-05-04T04:27:06.435Z,9.20
2023-05-04T04:29:35.407Z,9.20
2023-05-04T04:32:03.887Z,9.20
2023-05-04T04:34:30.706Z,9.20
2023-05-04T04:36:57.739Z,9.20
2023-05-04T04:39:25.025Z,9.20
2023-05-04T04:41:51.962Z,9.20
2023-05-04T04:44:18.755Z,9.10
2023-05-04T04:46:46.477Z,9.20
2023-05-04T04:49:13.294Z,9.10
2023-05-04T04:51:42.679Z,9.10
2023-05-04T04:54:09.452Z,9.20
2023-05-04T04:56:41.549Z,9.20
2023-05-04T04:59:08.314Z,9.10
2023-05-04T05:01:35.199Z,9.20
2023-05-04T05:04:02.086Z,9.20
2023-05-04T05:06:28.840Z,9.20
2023-05-04T05:08:55.822Z,9.20
2023-05-04T05:11:22.599Z,9.20
2023-05-04T05:13:49.309Z,9.20
2023-05-04T05:16:16.122Z,9.20
2023-05-04T05:18:42.952Z,9.20
2023-05-04T05:21:10.962Z,9.20
2023-05-04T05:23:37.756Z,9.20
2023-05-04T05:26:04.511Z,9.30
2023-05-04T05:28:31.513Z,9.30
2023-05-04T05:30:58.319Z,9.20
2023-05-04T05:33:25.162Z,9.40
2023-05-04T05:35:52.541Z,9.30
2023-05-04T05:38:19.936Z,9.40
2023-05-04T05:40:48.177Z,9.40
2023-05-04T05:43:15.242Z,9.40
2023-05-04T05:45:42.122Z,9.50
2023-05-04T05:48:08.985Z,9.40
2023-05-04T05:50:35.816Z,9.50
2023-05-04T05:53:02.602Z,9.50
2023-05-04T05:55:29.405Z,9.60
2023-05-04T05:57:56.178Z,9.60
2023-05-04T06:00:23.020Z,9.60
2023-05-04T06:02:51.486Z,9.70
2023-05-04T06:05:18.670Z,9.70
2023-05-04T06:07:46.201Z,9.90
2023-05-04T06:10:12.995Z,10.00
2023-05-04T06:12:39.982Z,10.00
2023-05-04T06:15:08.276Z,10.10
2023-05-04T06:17:35.460Z,10.00
2023-05-04T06:20:02.384Z,10.00
2023-05-04T06:22:29.175Z,10.00
2023-05-04T06:25:01.551Z,10.10
2023-05-04T06:27:32.751Z,10.20
2023-05-04T06:29:59.884Z,10.30
2023-05-04T06:32:27.548Z,10.40
2023-05-04T06:34:55.608Z,10.40
2023-05-04T06:37:22.439Z,10.40
2023-05-04T06:39:49.250Z,10.50
2023-05-04T06:42:16.051Z,10.50
2023-05-04T06:44:42.864Z,10.60
2023-05-04T06:47:09.569Z,10.60
2023-05-04T06:49:37.801Z,10.70
2023-05-04T06:52:04.884Z,10.80
2023-05-04T06:54:32.844Z,10.80
2023-05-04T06:56:59.598Z,10.90
2023-05-04T06:59:26.646Z,10.90
2023-05-04T07:01:53.401Z,10.90
2023-05-04T07:04:25.673Z,11.00
2023-05-04T07:06:52.768Z,11.10
2023-05-04T07:09:20.412Z,11.10
2023-05-04T07:11:48.572Z,11.10
2023-05-04T07:14:15.971Z,11.20
2023-05-04T07:16:42.937Z,11.30
2023-05-04T07:19:10.458Z,11.40
2023-05-04T07:21:38.048Z,11.40
2023-05-04T07:24:06.899Z,11.50
2023-05-04T07:26:33.701Z,11.50
2023-05-04T07:29:00.429Z,11.60
2023-05-04T07:31:28.794Z,11.70
2023-05-04T07:33:57.228Z,11.80
2023-05-04T07:36:26.449Z,11.90
2023-05-04T07:38:53.828Z,12.00
2023-05-04T07:41:20.758Z,12.10
2023-05-04T07:43:47.523Z,12.20
2023-05-04T07:46:14.277Z,12.20
2023-05-04T07:48:41.292Z,12.30
2023-05-04T07:51:14.684Z,12.40
2023-05-04T07:53:43.110Z,12.60
2023-05-04T07:56:13.942Z,12.70
2023-05-04T07:58:41.432Z,12.80
2023-05-04T08:01:08.349Z,12.90
2023-05-04T08:03:35.368Z,13.10
2023-05-04T08:06:02.334Z,13.20
2023-05-04T08:08:29.132Z,13.50
2023-05-04T08:11:01.937Z,13.70
2023-05-04T08:13:35.225Z,13.90
2023-05-04T08:16:01.912Z,14.10
2023-05-04T08:18:30.232Z,14.20
2023-05-04T08:20:56.976Z,14.40
2023-05-04T08:23:23.917Z,14.50
2023-05-04T08:25:50.735Z,14.70
2023-05-04T08:28:17.625Z,15.00
2023-05-04T08:30:44.382Z,15.10
2023-05-04T08:33:11.111Z,15.20
2023-05-04T08:35:37.864Z,15.30
2023-05-04T08:38:04.839Z,15.40
2023-05-04T08:40:32.970Z,15.60
2023-05-04T08:42:59.754Z,15.80
2023-05-04T08:45:27.963Z,15.90
2023-05-04T08:47:54.854Z,15.90
2023-05-04T08:50:21.762Z,16.00
2023-05-04T08:52:49.391Z,16.20
2023-05-04T08:55:17.362Z,16.40
2023-05-04T08:57:44.752Z,16.50
2023-05-04T09:00:16.135Z,16.60
2023-05-04T09:02:44.763Z,16.60
2023-05-04T09:05:12.330Z,16.80
2023-05-04T09:07:39.180Z,16.90
2023-05-04T09:10:11.015Z,16.90
2023-05-04T09:12:38.012Z,17.00
2023-05-04T09:15:18.427Z,17.30
2023-05-04T09:17:57.988Z,17.60
2023-05-04T09:20:25.995Z,17.90
2023-05-04T09:23:22.728Z,18.00
2023-05-04T09:25:54.709Z,17.90
2023-05-04T09:28:38.627Z,18.10
2023-05-04T09:31:07.290Z,18.20
2023-05-04T09:33:34.968Z,18.20
2023-05-04T09:36:18.710Z,18.40
2023-05-04T09:38:46.052Z,18.50
2023-05-04T09:41:12.992Z,18.50
2023-05-04T09:43:43.733Z,18.70
2023-05-04T09:46:20.117Z,18.80
2023-05-04T09:48:57.532Z,18.80
2023-05-04T09:51:35.190Z,18.90
2023-05-04T09:54:06.328Z,19.20
2023-05-04T09:56:55.320Z,19.00
2023-05-04T09:59:26.404Z,19.10
2023-05-04T10:01:54.201Z,19.30
2023-05-04T10:04:21.889Z,19.40
2023-05-04T10:06:49.461Z,19.30
2023-05-04T10:09:18.012Z,19.50
2023-05-04T10:11:45.175Z,19.60
2023-05-04T10:14:13.902Z,19.80
2023-05-04T10:17:35.181Z,19.90
2023-05-04T10:20:33.671Z,20.00
2023-05-04T10:23:17.942Z,20.10
2023-05-04T10:26:08.249Z,20.20
2023-05-04T10:29:13.623Z,20.30
2023-05-04T10:31:42.693Z,20.40
2023-05-04T10:34:11.175Z,20.60
2023-05-04T10:36:42.168Z,20.50
2023-05-04T10:39:24.245Z,20.60
2023-05-04T10:42:09.270Z,20.50
2023-05-04T10:44:58.099Z,20.50
2023-05-04T10:47:33.117Z,20.70
2023-05-04T10:50:13.388Z,20.90
2023-05-04T10:52:54.005Z,21.10
2023-05-04T10:55:22.538Z,21.20
2023-05-04T10:57:56.145Z,21.30
2023-05-04T11:00:35.194Z,21.60
2023-05-04T11:03:07.425Z,21.80
2023-05-04T11:06:02.720Z,22.00
2023-05-04T11:08:30.503Z,22.10
2023-05-04T11:11:09.205Z,22.30
2023-05-04T11:13:44.672Z,22.20
2023-05-04T11:16:14.638Z,22.20
2023-05-04T11:18:41.591Z,22.30
2023-05-04T11:21:09.314Z,22.30
2023-05-04T11:23:36.856Z,22.30
2023-05-04T11:26:09.147Z,22.40
2023-05-04T11:28:37.918Z,22.50
2023-05-04T11:31:18.351Z,22.80
2023-05-04T11:33:55.250Z,22.50
2023-05-04T11:36:23.025Z,22.70
2023-05-04T11:38:51.118Z,22.60
2023-05-04T11:41:17.922Z,22.40
2023-05-04T11:43:46.792Z,22.50
2023-05-04T11:46:16.571Z,22.60
2023-05-04T11:48:44.243Z,22.70
2023-05-04T11:51:11.242Z,22.70
2023-05-04T11:53:40.609Z,22.90
2023-05-04T11:56:09.081Z,22.90
2023-05-04T11:58:36.745Z,23.20
2023-05-04T12:01:04.200Z,23.30
2023-05-04T12:03:51.078Z,23.40
2023-05-04T12:06:19.066Z,23.40
2023-05-04T12:08:45.928Z,23.40
2023-05-04T12:11:26.076Z,23.40
2023-05-04T12:14:06.752Z,23.50
2023-05-04T12:16:34.442Z,23.40
2023-05-04T12:19:05.794Z,23.40
2023-05-04T12:21:36.352Z,23.50
2023-05-04T12:24:05.596Z,23.40
2023-05-04T12:26:32.378Z,23.40
2023-05-04T12:28:59.128Z,23.30
2023-05-04T12:31:26.057Z,23.20
2023-05-04T12:33:53.006Z,23.30
2023-05-04T12:36:21.292Z,23.20
2023-05-04T12:38:48.015Z,23.20
2023-05-04T12:41:14.855Z,23.20
2023-05-04T12:43:43.276Z,23.30
2023-05-04T12:46:10.620Z,23.50
2023-05-04T12:48:37.478Z,23.80
2023-05-04T12:51:04.987Z,23.80
2023-05-04T12:53:33.085Z,23.90
2023-05-04T12:56:01.388Z,24.00
2023-05-04T12:58:28.741Z,24.00
2023-05-04T13:00:57.795Z,24.10
2023-05-04T13:03:24.809Z,24.10
2023-05-04T13:05:53.818Z,24.20
2023-05-04T13:08:20.634Z,24.10
2023-05-04T13:10:47.976Z,24.10
2023-05-04T13:13:19.251Z,24.10
2023-05-04T13:15:50.536Z,24.20
2023-05-04T13:18:17.525Z,24.20
2023-05-04T13:20:44.296Z,24.30
2023-05-04T13:23:11.349Z,24.50
2023-05-04T13:25:38.089Z,24.60
2023-05-04T13:28:04.880Z,24.50
2023-05-04T13:30:31.630Z,24.30
2023-05-04T13:32:58.471Z,24.40
2023-05-04T13:35:25.358Z,24.40
2023-05-04T13:37:52.543Z,24.20
2023-05-04T13:40:19.341Z,24.20
2023-05-04T13:42:46.255Z,24.30
2023-05-04T13:45:15.520Z,24.40
2023-05-04T13:47:42.374Z,24.30
2023-05-04T13:50:09.849Z,24.20
2023-05-04T13:52:37.237Z,24.00
2023-05-04T13:55:04.688Z,24.00
2023-05-04T13:57:31.772Z,24.10
2023-05-04T14:00:07.002Z,24.00
2023-05-04T14:02:35.526Z,24.00
2023-05-04T14:05:04.522Z,23.90
2023-05-04T14:07:31.788Z,24.20
2023-05-04T14:09:59.719Z,24.30
2023-05-04T14:12:28.868Z,24.30
2023-05-04T14:14:55.917Z,24.30
2023-05-04T14:17:22.847Z,24.30
2023-05-04T14:19:51.010Z,24.50
2023-05-04T14:22:17.750Z,24.50
2023-05-04T14:24:44.531Z,24.50
2023-05-04T14:27:11.574Z,24.40
2023-05-04T14:29:39.655Z,24.60
2023-05-04T14:32:06.738Z,24.50
2023-05-04T14:34:33.709Z,24.60
2023-05-04T14:37:00.645Z,24.60
2023-05-04T14:39:27.537Z,24.40
2023-05-04T14:41:54.761Z,24.40
2023-05-04T14:44:22.635Z,24.30
2023-05-04T14:46:52.105Z,24.30
2023-05-04T14:49:36.010Z,24.30
2023-05-04T14:52:05.332Z,24.50
2023-05-04T14:54:32.507Z,24.50
2023-05-04T14:57:00.173Z,24.70
2023-05-04T14:59:27.095Z,24.80
2023-05-04T15:01:54.884Z,25.00
2023-05-04T15:04:22.331Z,24.90
2023-05-04T15:06:49.594Z,24.90
2023-05-04T15:09:16.484Z,25.00
2023-05-04T15:11:43.373Z,25.00
2023-05-04T15:14:10.137Z,25.00
2023-05-04T15:16:37.024Z,24.70
2023-05-04T15:19:04.273Z,24.70
2023-05-04T15:21:32.051Z,24.90
2023-05-04T15:23:58.820Z,25.20
2023-05-04T15:26:25.850Z,25.10
2023-05-04T15:28:54.086Z,25.10
2023-05-04T15:31:21.673Z,25.10
2023-05-04T15:33:48.794Z,24.90
2023-05-04T15:36:15.617Z,24.80
2023-05-04T15:38:43.706Z,24.80
2023-05-04T15:41:10.931Z,24.70
2023-05-04T15:43:37.717Z,24.70
2023-05-04T15:46:04.544Z,24.70
2023-05-04T15:48:31.416Z,24.80
2023-05-04T15:50:59.843Z,24.80
2023-05-04T15:53:27.243Z,24.80
2023-05-04T15:55:54.062Z,24.70
2023-05-04T15:58:20.978Z,24.70
2023-05-04T16:00:47.673Z,24.70
2023-05-04T16:03:14.450Z,24.60
2023-05-04T16:05:41.255Z,24.60
2023-05-04T16:08:07.949Z,24.50
2023-05-04T16:10:34.756Z,24.60
2023-05-04T16:13:04.110Z,24.70
2023-05-04T16:15:31.292Z,24.80
2023-05-04T16:17:58.126Z,24.70
2023-05-04T16:20:28.789Z,24.90
2023-05-04T16:22:55.964Z,25.00
2023-05-04T16:25:22.801Z,25.10
2023-05-04T16:27:49.516Z,24.80
2023-05-04T16:30:17.539Z,24.60
2023-05-04T16:32:44.847Z,24.60
2023-05-04T16:35:11.680Z,24.50
2023-05-04T16:37:41.706Z,24.50
2023-05-04T16:40:16.510Z,24.60
2023-05-04T16:42:43.778Z,24.60
2023-05-04T16:45:15.563Z,24.60
2023-05-04T16:47:43.655Z,24.80
2023-05-04T16:50:12.352Z,24.90
2023-05-04T16:52:39.895Z,24.90
2023-05-04T16:55:11.829Z,24.70
2023-05-04T16:57:39.510Z,24.60
2023-05-04T17:00:07.904Z,24.50
2023-05-04T17:02:35.857Z,24.50
2023-05-04T17:05:06.447Z,24.50
2023-05-04T17:07:34.078Z,24.60
2023-05-04T17:10:02.723Z,24.60
2023-05-04T17:12:30.800Z,24.70
2023-05-04T17:14:57.682Z,24.60
2023-05-04T17:17:24.452Z,24.50
2023-05-04T17:19:51.273Z,24.60
2023-05-04T17:22:18.138Z,24.70
2023-05-04T17:24:45.699Z,24.60
2023-05-04T17:27:13.124Z,24.50
2023-05-04T17:29:41.007Z,24.30
2023-05-04T17:32:08.186Z,24.30
2023-05-04T17:34:36.217Z,24.00
2023-05-04T17:37:03.473Z,23.90
2023-05-04T17:39:53.030Z,24.00
2023-05-04T17:42:19.839Z,24.00
2023-05-04T17:44:46.608Z,24.00
2023-05-04T17:47:13.412Z,23.90
2023-05-04T17:49:40.116Z,23.80
2023-05-04T17:52:07.277Z,23.60
2023-05-04T17:54:36.973Z,23.60
2023-05-04T17:57:03.781Z,23.40
2023-05-04T17:59:31.424Z,23.40
2023-05-04T18:01:58.165Z,23.40
2023-05-04T18:04:25.005Z,23.30
2023-05-04T18:06:51.692Z,23.20
2023-05-04T18:09:19.651Z,23.10
2023-05-04T18:11:47.014Z,23.00
2023-05-04T18:14:13.769Z,22.90
2023-05-04T18:16:40.649Z,22.90
2023-05-04T18:19:08.056Z,22.90
2023-05-04T18:21:36.941Z,22.90
2023-05-04T18:24:04.723Z,22.80
2023-05-04T18:26:31.870Z,22.70
2023-05-04T18:29:07.694Z,22.70
2023-05-04T18:31:44.422Z,22.80
2023-05-04T18:34:11.254Z,22.70
2023-05-04T18:36:38.041Z,22.60
2023-05-04T18:39:04.763Z,22.60
2023-05-04T18:41:31.719Z,22.50
2023-05-04T18:43:58.553Z,22.60
2023-05-04T18:46:25.418Z,22.50
2023-05-04T18:48:52.323Z,22.50
2023-05-04T18:51:19.135Z,22.40
2023-05-04T18:53:47.317Z,22.50
2023-05-04T18:56:14.087Z,22.30
2023-05-04T18:58:40.953Z,22.30
2023-05-04T19:01:07.780Z,22.10
2023-05-04T19:03:34.745Z,22.10
2023-05-04T19:06:01.593Z,22.00
2023-05-04T19:08:28.359Z,21.90
2023-05-04T19:11:02.874Z,21.80
2023-05-04T19:13:30.232Z,21.70
2023-05-04T19:15:57.207Z,21.60
2023-05-04T19:18:24.548Z,21.60
2023-05-04T19:20:51.496Z,21.60
2023-05-04T19:23:18.200Z,21.50
2023-05-04T19:25:45.253Z,21.50
2023-05-04T19:28:12.143Z,21.50
2023-05-04T19:30:39.913Z,21.50
2023-05-04T19:33:08.479Z,21.50
2023-05-04T19:35:36.033Z,21.40
2023-05-04T19:38:03.798Z,21.40
2023-05-04T19:40:32.519Z,21.30
2023-05-04T19:42:59.481Z,21.20
2023-05-04T19:45:26.593Z,21.20
2023-05-04T19:47:53.314Z,21.00
2023-05-04T19:50:20.832Z,20.90
2023-05-04T19:52:47.587Z,21.00
2023-05-04T19:55:14.453Z,20.90
2023-05-04T19:57:41.246Z,20.90
2023-05-04T20:00:12.648Z,20.80
2023-05-04T20:02:39.535Z,20.80
2023-05-04T20:05:06.693Z,20.80
2023-05-04T20:07:33.464Z,20.70
2023-05-04T20:10:00.377Z,20.70
2023-05-04T20:12:27.688Z,20.60
2023-05-04T20:14:54.689Z,20.60
2023-05-04T20:17:21.637Z,20.70
2023-05-04T20:19:48.504Z,20.50
2023-05-04T20:22:15.997Z,20.40
2023-05-04T20:24:43.085Z,20.40
2023-05-04T20:27:10.013Z,20.40
2023-05-04T20:29:37.643Z,20.30
2023-05-04T20:32:05.504Z,20.30
2023-05-04T20:34:32.927Z,20.30
2023-05-04T20:36:59.644Z,20.30
2023-05-04T20:39:26.469Z,20.20
2023-05-04T20:41:53.238Z,20.20
2023-05-04T20:44:20.098Z,20.20
2023-05-04T20:46:46.839Z,20.10
2023-05-04T20:49:13.761Z,20.10
2023-05-04T20:51:40.695Z,20.10
2023-05-04T20:54:07.999Z,20.00
2023-05-04T20:56:34.844Z,20.00
2023-05-04T20:59:01.583Z,20.10
2023-05-04T21:01:30.181Z,20.00
2023-05-04T21:03:57.055Z,20.00
2023-05-04T21:06:26.826Z,20.00
2023-05-04T21:08:53.706Z,19.90
2023-05-04T21:11:21.051Z,19.90
2023-05-04T21:13:47.722Z,19.70
2023-05-04T21:16:14.434Z,19.80
2023-05-04T21:18:41.236Z,19.80
2023-05-04T21:21:08.013Z,19.70
2023-05-04T21:23:34.861Z,19.60
2023-05-04T21:26:06.000Z,19.60
2023-05-04T21:28:32.912Z,19.60
2023-05-04T21:30:59.671Z,19.60
2023-05-04T21:33:26.484Z,19.60
2023-05-04T21:35:53.268Z,19.60
2023-05-04T21:38:22.443Z,19.50
2023-05-04T21:40:49.535Z,19.50
2023-05-04T21:43:16.454Z,19.50
2023-05-04T21:45:43.183Z,19.50
2023-05-04T21:48:10.135Z,19.40
2023-05-04T21:50:36.946Z,19.40
2023-05-04T21:53:03.694Z,19.40
2023-05-04T21:55:31.460Z,19.40
2023-05-04T21:57:58.172Z,19.40
2023-05-04T22:00:25.130Z,19.40
2023-05-04T22:02:56.913Z,19.40
2023-05-04T22:05:23.927Z,19.30
2023-05-04T22:07:50.692Z,19.40
2023-05-04T22:10:18.533Z,19.40
2023-05-04T22:12:45.432Z,19.30
2023-05-04T22:15:12.762Z,19.30
2023-05-04T22:17:40.072Z,19.30
2023-05-04T22:20:08.088Z,19.20
2023-05-04T22:22:35.671Z,19.20
2023-05-04T22:25:02.421Z,19.20
2023-05-04T22:27:29.261Z,19.30
2023-05-04T22:29:56.078Z,19.10
2023-05-04T22:32:22.987Z,19.20
2023-05-04T22:34:49.762Z,19.10
2023-05-04T22:37:16.590Z,19.10
2023-05-04T22:39:43.298Z,19.00
2023-05-04T22:42:10.245Z,19.10
2023-05-04T22:44:37.138Z,18.90
2023-05-04T22:47:04.153Z,19.00
2023-05-04T22:49:30.876Z,19.00
2023-05-04T22:51:57.682Z,19.00
2023-05-04T22:54:24.393Z,18.90
2023-05-04T22:56:51.140Z,18.80
2023-05-04T22:59:17.910Z,18.70
2023-05-04T23:01:44.689Z,18.70
2023-05-04T23:04:11.573Z,18.70
2023-05-04T23:06:38.907Z,18.60
2023-05-04T23:09:05.743Z,18.60
2023-05-04T23:11:32.590Z,18.50
2023-05-04T23:13:59.585Z,18.50
2023-05-04T23:16:26.519Z,18.30
2023-05-04T23:18:53.273Z,18.00
2023-05-04T23:21:20.110Z,18.10
2023-05-04T23:23:46.873Z,17.80
2023-05-04T23:26:13.616Z,17.70
2023-05-04T23:28:40.543Z,17.90
2023-05-04T23:31:07.255Z,17.80
2023-05-04T23:33:34.024Z,18.00
2023-05-04T23:36:00.978Z,18.10
2023-05-04T23:38:27.959Z,18.10
2023-05-04T23:40:54.889Z,18.10
2023-05-04T23:43:23.643Z,18.20
2023-05-04T23:45:59.291Z,18.10
2023-05-04T23:48:26.115Z,18.20
2023-05-04T23:50:54.892Z,18.20
2023-05-04T23:53:21.914Z,18.10
2023-05-04T23:55:58.104Z,18.00
2023-05-04T23:58:27.496Z,17.80
